Upland, California
Current Conditions -  °F | °C
As of 3:53 PM on Friday 31 Oct 2014 (Local Time) from KONT Reporting Station
Overcast Overcast  
Wind Chill: 69°   Ceiling: 4800
Heat Index: 69°   Visibility: 10mi
Dew Point: 55°   Wind: 12mph
Humidity: 61%   Direction: 240°WSW
Pressure: 29.87"   Gusts: 21mph
Location:  34.1°N, 117.65°W
Report Text: KONT 312253Z 24010G18KT 10SM OVC048 21/13 A2987 RMK AO2 SLP108 T02060128
Loading
Personal Weather Stations






























Interactive Weather Map
Tropical Storm Tracking
New forecast layout! Learn more

10-Day Weather Forecast

Advertisements
Track Severe Weather on mobile